sensor_id;sensor_type;location;lat;lon;timestamp;P1;durP1;ratioP1;P2;durP2;ratioP2
20022;SDS011;10172;42.054;24.546;2024-02-26T00:00:27;44.05;;;24.83;;
20022;SDS011;10172;42.054;24.546;2024-02-26T00:02:53;42.00;;;19.98;;
20022;SDS011;10172;42.054;24.546;2024-02-26T00:05:19;41.80;;;27.27;;
20022;SDS011;10172;42.054;24.546;2024-02-26T00:07:44;36.25;;;23.80;;
20022;SDS011;10172;42.054;24.546;2024-02-26T00:10:10;27.55;;;19.13;;
20022;SDS011;10172;42.054;24.546;2024-02-26T00:12:35;29.58;;;24.20;;
20022;SDS011;10172;42.054;24.546;2024-02-26T00:15:01;22.98;;;17.13;;
20022;SDS011;10172;42.054;24.546;2024-02-26T00:17:26;22.77;;;18.35;;
20022;SDS011;10172;42.054;24.546;2024-02-26T00:19:52;21.58;;;13.13;;
20022;SDS011;10172;42.054;24.546;2024-02-26T00:22:18;14.68;;;10.90;;
20022;SDS011;10172;42.054;24.546;2024-02-26T00:24:43;22.17;;;12.15;;
20022;SDS011;10172;42.054;24.546;2024-02-26T00:27:08;18.20;;;11.02;;
20022;SDS011;10172;42.054;24.546;2024-02-26T00:29:34;23.20;;;14.70;;
20022;SDS011;10172;42.054;24.546;2024-02-26T00:31:59;15.05;;;9.35;;
20022;SDS011;10172;42.054;24.546;2024-02-26T00:34:25;20.33;;;12.18;;
20022;SDS011;10172;42.054;24.546;2024-02-26T00:36:50;32.10;;;21.58;;
20022;SDS011;10172;42.054;24.546;2024-02-26T00:39:15;41.03;;;28.60;;
20022;SDS011;10172;42.054;24.546;2024-02-26T00:41:41;41.05;;;28.42;;
20022;SDS011;10172;42.054;24.546;2024-02-26T00:44:06;33.38;;;24.48;;
20022;SDS011;10172;42.054;24.546;2024-02-26T00:46:32;38.47;;;26.20;;
20022;SDS011;10172;42.054;24.546;2024-02-26T00:48:57;46.97;;;27.85;;
20022;SDS011;10172;42.054;24.546;2024-02-26T00:51:23;37.42;;;29.13;;
20022;SDS011;10172;42.054;24.546;2024-02-26T00:53:48;34.65;;;23.75;;
20022;SDS011;10172;42.054;24.546;2024-02-26T00:56:14;34.83;;;24.67;;
20022;SDS011;10172;42.054;24.546;2024-02-26T00:58:39;47.63;;;27.17;;
20022;SDS011;10172;42.054;24.546;2024-02-26T01:01:05;38.17;;;25.38;;
20022;SDS011;10172;42.054;24.546;2024-02-26T01:03:30;37.95;;;26.63;;
20022;SDS011;10172;42.054;24.546;2024-02-26T01:05:56;43.50;;;27.77;;
20022;SDS011;10172;42.054;24.546;2024-02-26T01:08:21;41.20;;;29.15;;
20022;SDS011;10172;42.054;24.546;2024-02-26T01:10:46;48.50;;;31.77;;
20022;SDS011;10172;42.054;24.546;2024-02-26T01:13:12;46.17;;;31.40;;
20022;SDS011;10172;42.054;24.546;2024-02-26T01:15:37;45.08;;;30.30;;
20022;SDS011;10172;42.054;24.546;2024-02-26T01:18:03;45.25;;;30.27;;
20022;SDS011;10172;42.054;24.546;2024-02-26T01:20:28;44.10;;;30.48;;
20022;SDS011;10172;42.054;24.546;2024-02-26T01:22:53;41.75;;;28.33;;
20022;SDS011;10172;42.054;24.546;2024-02-26T01:25:19;46.40;;;28.63;;
20022;SDS011;10172;42.054;24.546;2024-02-26T01:27:44;42.90;;;29.05;;
20022;SDS011;10172;42.054;24.546;2024-02-26T01:30:10;41.40;;;29.25;;
20022;SDS011;10172;42.054;24.546;2024-02-26T01:32:36;40.53;;;28.15;;
20022;SDS011;10172;42.054;24.546;2024-02-26T01:35:02;39.17;;;27.23;;
20022;SDS011;10172;42.054;24.546;2024-02-26T01:37:35;40.92;;;27.80;;
20022;SDS011;10172;42.054;24.546;2024-02-26T01:40:00;39.40;;;28.17;;
20022;SDS011;10172;42.054;24.546;2024-02-26T01:42:29;39.38;;;27.45;;
20022;SDS011;10172;42.054;24.546;2024-02-26T01:44:54;41.17;;;27.20;;
20022;SDS011;10172;42.054;24.546;2024-02-26T01:47:20;41.08;;;29.20;;
20022;SDS011;10172;42.054;24.546;2024-02-26T01:49:45;39.63;;;27.70;;
20022;SDS011;10172;42.054;24.546;2024-02-26T01:52:11;37.58;;;26.30;;
20022;SDS011;10172;42.054;24.546;2024-02-26T01:54:36;37.00;;;26.17;;
20022;SDS011;10172;42.054;24.546;2024-02-26T01:57:03;36.85;;;26.45;;
20022;SDS011;10172;42.054;24.546;2024-02-26T01:59:30;35.85;;;25.38;;
20022;SDS011;10172;42.054;24.546;2024-02-26T02:01:57;36.85;;;24.40;;
20022;SDS011;10172;42.054;24.546;2024-02-26T02:04:26;34.70;;;24.38;;
20022;SDS011;10172;42.054;24.546;2024-02-26T02:06:52;34.95;;;23.88;;
20022;SDS011;10172;42.054;24.546;2024-02-26T02:09:18;33.13;;;24.13;;
20022;SDS011;10172;42.054;24.546;2024-02-26T02:11:44;37.00;;;23.23;;
20022;SDS011;10172;42.054;24.546;2024-02-26T02:14:09;30.38;;;23.20;;
20022;SDS011;10172;42.054;24.546;2024-02-26T02:16:35;29.27;;;22.33;;
20022;SDS011;10172;42.054;24.546;2024-02-26T02:19:00;31.80;;;22.17;;
20022;SDS011;10172;42.054;24.546;2024-02-26T02:21:26;28.20;;;21.00;;
20022;SDS011;10172;42.054;24.546;2024-02-26T02:23:51;31.60;;;21.45;;
20022;SDS011;10172;42.054;24.546;2024-02-26T02:26:17;29.63;;;22.38;;
20022;SDS011;10172;42.054;24.546;2024-02-26T02:28:43;30.80;;;21.65;;
20022;SDS011;10172;42.054;24.546;2024-02-26T02:31:10;34.28;;;21.48;;
20022;SDS011;10172;42.054;24.546;2024-02-26T02:33:36;28.00;;;19.92;;
20022;SDS011;10172;42.054;24.546;2024-02-26T02:36:02;30.42;;;20.67;;
20022;SDS011;10172;42.054;24.546;2024-02-26T02:38:28;22.92;;;16.40;;
20022;SDS011;10172;42.054;24.546;2024-02-26T02:40:55;23.25;;;17.20;;
20022;SDS011;10172;42.054;24.546;2024-02-26T02:43:20;26.70;;;19.20;;
20022;SDS011;10172;42.054;24.546;2024-02-26T02:45:45;25.67;;;19.33;;
20022;SDS011;10172;42.054;24.546;2024-02-26T02:48:11;23.58;;;16.92;;
20022;SDS011;10172;42.054;24.546;2024-02-26T02:50:37;26.48;;;18.77;;
20022;SDS011;10172;42.054;24.546;2024-02-26T02:53:02;27.05;;;18.95;;
20022;SDS011;10172;42.054;24.546;2024-02-26T02:55:28;23.55;;;15.88;;
20022;SDS011;10172;42.054;24.546;2024-02-26T02:57:53;22.83;;;14.80;;
20022;SDS011;10172;42.054;24.546;2024-02-26T03:00:18;20.65;;;15.73;;
20022;SDS011;10172;42.054;24.546;2024-02-26T03:02:44;25.52;;;18.02;;
20022;SDS011;10172;42.054;24.546;2024-02-26T03:05:10;26.50;;;18.83;;
20022;SDS011;10172;42.054;24.546;2024-02-26T03:07:35;19.52;;;14.25;;
20022;SDS011;10172;42.054;24.546;2024-02-26T03:10:01;20.25;;;14.80;;
20022;SDS011;10172;42.054;24.546;2024-02-26T03:12:26;23.88;;;15.55;;
20022;SDS011;10172;42.054;24.546;2024-02-26T03:14:52;24.77;;;16.08;;
20022;SDS011;10172;42.054;24.546;2024-02-26T03:17:19;24.45;;;16.40;;
20022;SDS011;10172;42.054;24.546;2024-02-26T03:19:45;20.38;;;16.00;;
20022;SDS011;10172;42.054;24.546;2024-02-26T03:22:18;23.33;;;15.85;;
20022;SDS011;10172;42.054;24.546;2024-02-26T03:24:43;22.90;;;14.57;;
20022;SDS011;10172;42.054;24.546;2024-02-26T03:27:08;25.38;;;18.38;;
20022;SDS011;10172;42.054;24.546;2024-02-26T03:29:35;25.90;;;17.83;;
20022;SDS011;10172;42.054;24.546;2024-02-26T03:32:00;32.97;;;18.25;;
20022;SDS011;10172;42.054;24.546;2024-02-26T03:34:26;24.40;;;16.80;;
20022;SDS011;10172;42.054;24.546;2024-02-26T03:36:52;19.52;;;14.77;;
20022;SDS011;10172;42.054;24.546;2024-02-26T03:39:17;21.80;;;14.82;;
20022;SDS011;10172;42.054;24.546;2024-02-26T03:41:42;26.13;;;15.30;;
20022;SDS011;10172;42.054;24.546;2024-02-26T03:44:08;25.20;;;14.95;;
20022;SDS011;10172;42.054;24.546;2024-02-26T03:46:33;22.55;;;14.70;;
20022;SDS011;10172;42.054;24.546;2024-02-26T03:48:58;21.95;;;16.25;;
20022;SDS011;10172;42.054;24.546;2024-02-26T03:51:24;21.50;;;15.52;;
20022;SDS011;10172;42.054;24.546;2024-02-26T03:53:49;21.30;;;15.02;;
20022;SDS011;10172;42.054;24.546;2024-02-26T03:56:14;20.20;;;13.35;;
20022;SDS011;10172;42.054;24.546;2024-02-26T03:58:40;20.17;;;14.18;;
20022;SDS011;10172;42.054;24.546;2024-02-26T04:01:08;21.55;;;14.77;;
20022;SDS011;10172;42.054;24.546;2024-02-26T04:03:34;22.30;;;13.80;;
20022;SDS011;10172;42.054;24.546;2024-02-26T04:06:00;22.02;;;15.57;;
20022;SDS011;10172;42.054;24.546;2024-02-26T04:08:25;29.27;;;21.42;;
20022;SDS011;10172;42.054;24.546;2024-02-26T04:10:51;29.80;;;21.73;;
20022;SDS011;10172;42.054;24.546;2024-02-26T04:13:17;33.20;;;19.98;;
20022;SDS011;10172;42.054;24.546;2024-02-26T04:15:42;31.52;;;20.50;;
20022;SDS011;10172;42.054;24.546;2024-02-26T04:18:08;28.35;;;19.38;;
20022;SDS011;10172;42.054;24.546;2024-02-26T04:20:33;27.95;;;20.48;;
20022;SDS011;10172;42.054;24.546;2024-02-26T04:22:59;26.98;;;19.77;;
20022;SDS011;10172;42.054;24.546;2024-02-26T04:25:24;23.83;;;15.60;;
20022;SDS011;10172;42.054;24.546;2024-02-26T04:27:49;22.08;;;15.13;;
20022;SDS011;10172;42.054;24.546;2024-02-26T04:30:15;23.38;;;16.17;;
20022;SDS011;10172;42.054;24.546;2024-02-26T04:32:42;25.42;;;18.13;;
20022;SDS011;10172;42.054;24.546;2024-02-26T04:35:07;21.98;;;16.23;;
20022;SDS011;10172;42.054;24.546;2024-02-26T04:37:33;27.60;;;17.55;;
20022;SDS011;10172;42.054;24.546;2024-02-26T04:39:59;26.10;;;18.33;;
20022;SDS011;10172;42.054;24.546;2024-02-26T04:42:25;19.17;;;14.23;;
20022;SDS011;10172;42.054;24.546;2024-02-26T04:44:51;22.75;;;15.18;;
20022;SDS011;10172;42.054;24.546;2024-02-26T04:47:16;21.85;;;13.40;;
20022;SDS011;10172;42.054;24.546;2024-02-26T04:49:41;20.48;;;16.02;;
20022;SDS011;10172;42.054;24.546;2024-02-26T04:52:07;24.33;;;18.13;;
20022;SDS011;10172;42.054;24.546;2024-02-26T04:54:32;21.27;;;15.68;;
20022;SDS011;10172;42.054;24.546;2024-02-26T04:56:58;21.75;;;15.93;;
20022;SDS011;10172;42.054;24.546;2024-02-26T04:59:23;23.27;;;15.82;;
20022;SDS011;10172;42.054;24.546;2024-02-26T05:01:49;22.27;;;14.85;;
20022;SDS011;10172;42.054;24.546;2024-02-26T05:04:16;23.20;;;16.55;;
20022;SDS011;10172;42.054;24.546;2024-02-26T05:06:42;23.98;;;16.05;;
20022;SDS011;10172;42.054;24.546;2024-02-26T05:09:07;22.92;;;15.27;;
20022;SDS011;10172;42.054;24.546;2024-02-26T05:11:33;20.02;;;14.20;;
20022;SDS011;10172;42.054;24.546;2024-02-26T05:13:58;25.35;;;15.82;;
20022;SDS011;10172;42.054;24.546;2024-02-26T05:16:25;20.13;;;14.68;;
20022;SDS011;10172;42.054;24.546;2024-02-26T05:18:52;26.17;;;15.15;;
20022;SDS011;10172;42.054;24.546;2024-02-26T05:21:17;31.08;;;22.73;;
20022;SDS011;10172;42.054;24.546;2024-02-26T05:23:43;32.58;;;21.50;;
20022;SDS011;10172;42.054;24.546;2024-02-26T05:26:09;26.60;;;19.13;;
20022;SDS011;10172;42.054;24.546;2024-02-26T05:28:34;43.05;;;22.48;;
20022;SDS011;10172;42.054;24.546;2024-02-26T05:31:00;29.70;;;18.67;;
20022;SDS011;10172;42.054;24.546;2024-02-26T05:33:26;27.08;;;17.08;;
20022;SDS011;10172;42.054;24.546;2024-02-26T05:35:51;96.28;;;70.53;;
20022;SDS011;10172;42.054;24.546;2024-02-26T05:38:17;41.33;;;30.67;;
20022;SDS011;10172;42.054;24.546;2024-02-26T05:40:42;30.52;;;21.55;;
20022;SDS011;10172;42.054;24.546;2024-02-26T05:43:07;33.17;;;20.30;;
20022;SDS011;10172;42.054;24.546;2024-02-26T05:45:33;25.40;;;18.27;;
20022;SDS011;10172;42.054;24.546;2024-02-26T05:47:58;28.83;;;20.70;;
20022;SDS011;10172;42.054;24.546;2024-02-26T05:50:24;29.38;;;20.48;;
20022;SDS011;10172;42.054;24.546;2024-02-26T05:52:49;28.25;;;19.48;;
20022;SDS011;10172;42.054;24.546;2024-02-26T05:55:14;24.50;;;15.70;;
20022;SDS011;10172;42.054;24.546;2024-02-26T05:57:40;21.70;;;13.55;;
20022;SDS011;10172;42.054;24.546;2024-02-26T06:00:06;22.02;;;14.77;;
20022;SDS011;10172;42.054;24.546;2024-02-26T06:02:32;20.52;;;14.82;;
20022;SDS011;10172;42.054;24.546;2024-02-26T06:04:57;20.65;;;14.68;;
20022;SDS011;10172;42.054;24.546;2024-02-26T06:07:23;20.08;;;12.98;;
20022;SDS011;10172;42.054;24.546;2024-02-26T06:09:49;30.42;;;18.17;;
20022;SDS011;10172;42.054;24.546;2024-02-26T06:12:14;27.83;;;18.48;;
20022;SDS011;10172;42.054;24.546;2024-02-26T06:14:41;31.73;;;19.98;;
20022;SDS011;10172;42.054;24.546;2024-02-26T06:17:07;28.88;;;20.38;;
20022;SDS011;10172;42.054;24.546;2024-02-26T06:19:32;30.92;;;21.10;;
20022;SDS011;10172;42.054;24.546;2024-02-26T06:21:58;31.73;;;19.95;;
20022;SDS011;10172;42.054;24.546;2024-02-26T06:24:23;28.52;;;21.27;;
20022;SDS011;10172;42.054;24.546;2024-02-26T06:26:49;28.33;;;19.70;;
20022;SDS011;10172;42.054;24.546;2024-02-26T06:29:14;31.05;;;21.30;;
20022;SDS011;10172;42.054;24.546;2024-02-26T06:31:40;33.53;;;22.33;;
20022;SDS011;10172;42.054;24.546;2024-02-26T06:34:05;40.67;;;26.45;;
20022;SDS011;10172;42.054;24.546;2024-02-26T06:36:30;51.22;;;30.73;;
20022;SDS011;10172;42.054;24.546;2024-02-26T06:38:57;32.85;;;21.10;;
20022;SDS011;10172;42.054;24.546;2024-02-26T06:41:22;27.15;;;18.55;;
20022;SDS011;10172;42.054;24.546;2024-02-26T06:43:52;28.30;;;18.75;;
20022;SDS011;10172;42.054;24.546;2024-02-26T06:46:21;30.52;;;19.60;;
20022;SDS011;10172;42.054;24.546;2024-02-26T06:48:50;27.92;;;19.30;;
20022;SDS011;10172;42.054;24.546;2024-02-26T06:51:15;25.73;;;19.48;;
20022;SDS011;10172;42.054;24.546;2024-02-26T06:53:41;28.98;;;20.15;;
20022;SDS011;10172;42.054;24.546;2024-02-26T06:56:06;36.10;;;25.88;;
20022;SDS011;10172;42.054;24.546;2024-02-26T06:58:32;53.67;;;33.72;;
20022;SDS011;10172;42.054;24.546;2024-02-26T07:00:58;36.95;;;24.40;;
20022;SDS011;10172;42.054;24.546;2024-02-26T07:03:23;25.17;;;18.05;;
20022;SDS011;10172;42.054;24.546;2024-02-26T07:05:50;26.05;;;18.88;;
20022;SDS011;10172;42.054;24.546;2024-02-26T07:08:15;25.88;;;17.08;;
20022;SDS011;10172;42.054;24.546;2024-02-26T07:10:41;35.10;;;23.55;;
20022;SDS011;10172;42.054;24.546;2024-02-26T07:13:06;30.35;;;19.42;;
20022;SDS011;10172;42.054;24.546;2024-02-26T07:15:32;30.75;;;20.25;;
20022;SDS011;10172;42.054;24.546;2024-02-26T07:17:58;30.75;;;19.88;;
20022;SDS011;10172;42.054;24.546;2024-02-26T07:20:27;19.15;;;15.52;;
20022;SDS011;10172;42.054;24.546;2024-02-26T07:22:53;26.10;;;15.82;;
20022;SDS011;10172;42.054;24.546;2024-02-26T07:25:18;13.50;;;10.15;;
20022;SDS011;10172;42.054;24.546;2024-02-26T07:27:44;14.13;;;10.35;;
20022;SDS011;10172;42.054;24.546;2024-02-26T07:30:09;18.27;;;12.73;;
20022;SDS011;10172;42.054;24.546;2024-02-26T07:32:35;32.35;;;22.25;;
20022;SDS011;10172;42.054;24.546;2024-02-26T07:35:01;43.08;;;29.17;;
20022;SDS011;10172;42.054;24.546;2024-02-26T07:37:26;41.95;;;30.05;;
20022;SDS011;10172;42.054;24.546;2024-02-26T07:39:51;41.42;;;28.75;;
20022;SDS011;10172;42.054;24.546;2024-02-26T07:42:17;49.08;;;30.90;;
20022;SDS011;10172;42.054;24.546;2024-02-26T07:44:42;34.80;;;24.40;;
20022;SDS011;10172;42.054;24.546;2024-02-26T07:47:11;35.88;;;25.92;;
20022;SDS011;10172;42.054;24.546;2024-02-26T07:49:36;38.15;;;24.98;;
20022;SDS011;10172;42.054;24.546;2024-02-26T07:52:02;31.30;;;22.05;;
20022;SDS011;10172;42.054;24.546;2024-02-26T07:54:27;36.35;;;21.98;;
20022;SDS011;10172;42.054;24.546;2024-02-26T07:56:53;43.85;;;31.65;;
20022;SDS011;10172;42.054;24.546;2024-02-26T07:59:18;30.48;;;21.38;;
20022;SDS011;10172;42.054;24.546;2024-02-26T08:01:43;37.67;;;23.45;;
20022;SDS011;10172;42.054;24.546;2024-02-26T08:04:09;31.13;;;21.02;;
20022;SDS011;10172;42.054;24.546;2024-02-26T08:06:34;35.60;;;24.25;;
20022;SDS011;10172;42.054;24.546;2024-02-26T08:09:00;33.55;;;24.13;;
20022;SDS011;10172;42.054;24.546;2024-02-26T08:11:25;40.15;;;27.05;;
20022;SDS011;10172;42.054;24.546;2024-02-26T08:13:50;37.65;;;25.83;;
20022;SDS011;10172;42.054;24.546;2024-02-26T08:16:16;30.88;;;21.50;;
20022;SDS011;10172;42.054;24.546;2024-02-26T08:18:41;34.25;;;24.20;;
20022;SDS011;10172;42.054;24.546;2024-02-26T08:21:06;33.10;;;21.98;;
20022;SDS011;10172;42.054;24.546;2024-02-26T08:23:33;32.38;;;23.65;;
20022;SDS011;10172;42.054;24.546;2024-02-26T08:25:59;35.95;;;23.95;;
20022;SDS011;10172;42.054;24.546;2024-02-26T08:28:24;30.42;;;20.42;;
20022;SDS011;10172;42.054;24.546;2024-02-26T08:30:49;25.30;;;17.27;;
20022;SDS011;10172;42.054;24.546;2024-02-26T08:33:15;25.35;;;18.35;;
20022;SDS011;10172;42.054;24.546;2024-02-26T08:35:40;22.73;;;17.38;;
20022;SDS011;10172;42.054;24.546;2024-02-26T08:38:06;33.78;;;25.40;;
20022;SDS011;10172;42.054;24.546;2024-02-26T08:40:31;32.95;;;27.38;;
20022;SDS011;10172;42.054;24.546;2024-02-26T08:42:56;29.42;;;23.27;;
20022;SDS011;10172;42.054;24.546;2024-02-26T08:45:22;32.97;;;22.98;;
20022;SDS011;10172;42.054;24.546;2024-02-26T08:47:48;33.50;;;24.08;;
20022;SDS011;10172;42.054;24.546;2024-02-26T08:50:13;24.42;;;16.05;;
20022;SDS011;10172;42.054;24.546;2024-02-26T08:52:39;19.42;;;13.95;;
20022;SDS011;10172;42.054;24.546;2024-02-26T08:55:05;22.27;;;13.77;;
20022;SDS011;10172;42.054;24.546;2024-02-26T08:57:33;17.20;;;12.10;;
20022;SDS011;10172;42.054;24.546;2024-02-26T08:59:59;23.05;;;16.40;;
20022;SDS011;10172;42.054;24.546;2024-02-26T09:02:25;28.80;;;19.27;;
20022;SDS011;10172;42.054;24.546;2024-02-26T09:04:51;29.25;;;22.02;;
20022;SDS011;10172;42.054;24.546;2024-02-26T09:07:18;24.55;;;18.73;;
20022;SDS011;10172;42.054;24.546;2024-02-26T09:09:44;22.50;;;14.80;;
20022;SDS011;10172;42.054;24.546;2024-02-26T09:12:09;20.05;;;13.38;;
20022;SDS011;10172;42.054;24.546;2024-02-26T09:14:34;18.67;;;14.50;;
20022;SDS011;10172;42.054;24.546;2024-02-26T09:17:00;24.58;;;16.05;;
20022;SDS011;10172;42.054;24.546;2024-02-26T09:19:25;24.50;;;15.73;;
20022;SDS011;10172;42.054;24.546;2024-02-26T09:21:52;19.27;;;13.30;;
20022;SDS011;10172;42.054;24.546;2024-02-26T09:24:22;29.20;;;17.92;;
20022;SDS011;10172;42.054;24.546;2024-02-26T09:26:47;21.33;;;13.70;;
20022;SDS011;10172;42.054;24.546;2024-02-26T09:29:13;20.23;;;13.88;;
20022;SDS011;10172;42.054;24.546;2024-02-26T09:31:38;20.95;;;14.25;;
20022;SDS011;10172;42.054;24.546;2024-02-26T09:34:06;18.73;;;14.35;;
20022;SDS011;10172;42.054;24.546;2024-02-26T09:36:32;21.88;;;15.23;;
20022;SDS011;10172;42.054;24.546;2024-02-26T09:38:58;19.05;;;14.00;;
20022;SDS011;10172;42.054;24.546;2024-02-26T09:41:23;21.90;;;15.65;;
20022;SDS011;10172;42.054;24.546;2024-02-26T09:43:52;24.63;;;15.30;;
20022;SDS011;10172;42.054;24.546;2024-02-26T09:46:21;21.35;;;15.45;;
20022;SDS011;10172;42.054;24.546;2024-02-26T09:48:47;23.67;;;16.00;;
20022;SDS011;10172;42.054;24.546;2024-02-26T09:51:13;22.45;;;15.10;;
20022;SDS011;10172;42.054;24.546;2024-02-26T09:53:39;19.25;;;13.70;;
20022;SDS011;10172;42.054;24.546;2024-02-26T09:56:10;18.08;;;12.30;;
20022;SDS011;10172;42.054;24.546;2024-02-26T09:58:37;13.52;;;9.98;;
20022;SDS011;10172;42.054;24.546;2024-02-26T10:01:04;18.30;;;11.80;;
20022;SDS011;10172;42.054;24.546;2024-02-26T10:03:38;18.10;;;12.68;;
20022;SDS011;10172;42.054;24.546;2024-02-26T10:06:07;18.90;;;14.52;;
20022;SDS011;10172;42.054;24.546;2024-02-26T10:08:33;16.33;;;11.93;;
20022;SDS011;10172;42.054;24.546;2024-02-26T10:11:00;18.38;;;11.63;;
20022;SDS011;10172;42.054;24.546;2024-02-26T10:13:25;16.55;;;12.07;;
20022;SDS011;10172;42.054;24.546;2024-02-26T10:15:51;17.08;;;12.23;;
20022;SDS011;10172;42.054;24.546;2024-02-26T10:18:16;16.17;;;12.23;;
20022;SDS011;10172;42.054;24.546;2024-02-26T10:20:42;14.50;;;11.77;;
20022;SDS011;10172;42.054;24.546;2024-02-26T10:23:08;16.77;;;11.27;;
20022;SDS011;10172;42.054;24.546;2024-02-26T10:25:33;19.50;;;12.00;;
20022;SDS011;10172;42.054;24.546;2024-02-26T10:27:59;15.82;;;12.15;;
20022;SDS011;10172;42.054;24.546;2024-02-26T10:30:28;19.23;;;12.75;;
20022;SDS011;10172;42.054;24.546;2024-02-26T10:32:54;16.15;;;12.45;;
20022;SDS011;10172;42.054;24.546;2024-02-26T10:35:19;19.63;;;12.55;;
20022;SDS011;10172;42.054;24.546;2024-02-26T10:37:47;17.27;;;13.43;;
20022;SDS011;10172;42.054;24.546;2024-02-26T10:40:14;18.17;;;12.73;;
20022;SDS011;10172;42.054;24.546;2024-02-26T10:42:40;20.10;;;12.85;;
20022;SDS011;10172;42.054;24.546;2024-02-26T10:45:07;16.83;;;12.48;;
20022;SDS011;10172;42.054;24.546;2024-02-26T10:47:36;19.48;;;12.82;;
20022;SDS011;10172;42.054;24.546;2024-02-26T10:50:02;17.00;;;11.52;;
20022;SDS011;10172;42.054;24.546;2024-02-26T10:52:31;17.33;;;11.40;;
20022;SDS011;10172;42.054;24.546;2024-02-26T10:55:00;18.75;;;12.05;;
20022;SDS011;10172;42.054;24.546;2024-02-26T10:57:36;15.73;;;11.75;;
20022;SDS011;10172;42.054;24.546;2024-02-26T11:00:05;18.73;;;11.88;;
20022;SDS011;10172;42.054;24.546;2024-02-26T11:02:34;21.83;;;15.00;;
20022;SDS011;10172;42.054;24.546;2024-02-26T11:05:04;26.10;;;17.05;;
20022;SDS011;10172;42.054;24.546;2024-02-26T11:07:30;21.90;;;15.75;;
20022;SDS011;10172;42.054;24.546;2024-02-26T11:09:57;22.33;;;17.17;;
20022;SDS011;10172;42.054;24.546;2024-02-26T11:12:24;22.95;;;16.70;;
20022;SDS011;10172;42.054;24.546;2024-02-26T11:14:51;22.17;;;16.33;;
20022;SDS011;10172;42.054;24.546;2024-02-26T11:17:20;23.05;;;16.80;;
20022;SDS011;10172;42.054;24.546;2024-02-26T11:19:47;23.00;;;15.88;;
20022;SDS011;10172;42.054;24.546;2024-02-26T11:22:14;24.25;;;16.40;;
20022;SDS011;10172;42.054;24.546;2024-02-26T11:24:40;23.75;;;15.35;;
20022;SDS011;10172;42.054;24.546;2024-02-26T11:27:07;20.15;;;15.65;;
20022;SDS011;10172;42.054;24.546;2024-02-26T11:29:43;24.52;;;15.57;;
20022;SDS011;10172;42.054;24.546;2024-02-26T11:32:12;19.65;;;13.70;;
20022;SDS011;10172;42.054;24.546;2024-02-26T11:34:39;24.25;;;13.27;;
20022;SDS011;10172;42.054;24.546;2024-02-26T11:37:09;24.73;;;14.30;;
20022;SDS011;10172;42.054;24.546;2024-02-26T11:39:36;18.52;;;15.75;;
20022;SDS011;10172;42.054;24.546;2024-02-26T11:42:08;22.27;;;14.88;;
20022;SDS011;10172;42.054;24.546;2024-02-26T11:44:34;28.98;;;15.63;;
20022;SDS011;10172;42.054;24.546;2024-02-26T11:47:09;22.10;;;14.32;;
20022;SDS011;10172;42.054;24.546;2024-02-26T11:49:35;21.00;;;16.35;;
20022;SDS011;10172;42.054;24.546;2024-02-26T11:52:00;24.05;;;15.18;;
20022;SDS011;10172;42.054;24.546;2024-02-26T12:00:02;17.10;;;13.98;;
20022;SDS011;10172;42.054;24.546;2024-02-26T12:05:07;19.80;;;14.68;;
20022;SDS011;10172;42.054;24.546;2024-02-26T12:10:38;22.20;;;15.63;;
20022;SDS011;10172;42.054;24.546;2024-02-26T12:15:37;17.65;;;13.70;;
20022;SDS011;10172;42.054;24.546;2024-02-26T12:18:05;20.10;;;14.40;;
20022;SDS011;10172;42.054;24.546;2024-02-26T12:20:32;19.05;;;14.93;;
20022;SDS011;10172;42.054;24.546;2024-02-26T12:22:58;17.85;;;14.45;;
20022;SDS011;10172;42.054;24.546;2024-02-26T12:25:28;20.48;;;14.13;;
20022;SDS011;10172;42.054;24.546;2024-02-26T12:27:54;23.58;;;14.43;;
20022;SDS011;10172;42.054;24.546;2024-02-26T12:30:20;20.73;;;14.40;;
20022;SDS011;10172;42.054;24.546;2024-02-26T12:32:46;22.08;;;14.95;;
20022;SDS011;10172;42.054;24.546;2024-02-26T12:35:13;19.85;;;14.88;;
20022;SDS011;10172;42.054;24.546;2024-02-26T12:37:39;21.45;;;15.07;;
20022;SDS011;10172;42.054;24.546;2024-02-26T12:40:05;21.13;;;15.23;;
20022;SDS011;10172;42.054;24.546;2024-02-26T12:42:33;21.38;;;15.27;;
20022;SDS011;10172;42.054;24.546;2024-02-26T12:45:04;24.35;;;15.30;;
20022;SDS011;10172;42.054;24.546;2024-02-26T12:47:35;22.75;;;15.00;;
20022;SDS011;10172;42.054;24.546;2024-02-26T12:50:04;17.45;;;13.23;;
20022;SDS011;10172;42.054;24.546;2024-02-26T12:52:33;19.90;;;14.60;;
20022;SDS011;10172;42.054;24.546;2024-02-26T12:55:01;18.25;;;13.55;;
20022;SDS011;10172;42.054;24.546;2024-02-26T12:57:28;23.42;;;14.02;;
20022;SDS011;10172;42.054;24.546;2024-02-26T12:59:56;20.55;;;13.20;;
20022;SDS011;10172;42.054;24.546;2024-02-26T13:02:22;22.67;;;12.35;;
20022;SDS011;10172;42.054;24.546;2024-02-26T13:04:48;17.70;;;11.88;;
20022;SDS011;10172;42.054;24.546;2024-02-26T13:07:14;16.92;;;12.55;;
20022;SDS011;10172;42.054;24.546;2024-02-26T13:09:39;17.70;;;11.75;;
20022;SDS011;10172;42.054;24.546;2024-02-26T13:12:05;19.90;;;11.50;;
20022;SDS011;10172;42.054;24.546;2024-02-26T13:14:32;15.50;;;11.50;;
20022;SDS011;10172;42.054;24.546;2024-02-26T13:16:59;26.50;;;18.30;;
20022;SDS011;10172;42.054;24.546;2024-02-26T13:19:25;20.80;;;14.60;;
20022;SDS011;10172;42.054;24.546;2024-02-26T13:21:52;18.85;;;13.52;;
20022;SDS011;10172;42.054;24.546;2024-02-26T13:24:19;18.38;;;12.05;;
20022;SDS011;10172;42.054;24.546;2024-02-26T13:26:45;16.42;;;12.45;;
20022;SDS011;10172;42.054;24.546;2024-02-26T13:29:20;15.52;;;11.32;;
20022;SDS011;10172;42.054;24.546;2024-02-26T13:31:45;17.67;;;12.40;;
20022;SDS011;10172;42.054;24.546;2024-02-26T13:34:11;17.27;;;11.95;;
20022;SDS011;10172;42.054;24.546;2024-02-26T13:36:49;23.00;;;13.88;;
20022;SDS011;10172;42.054;24.546;2024-02-26T13:39:20;18.55;;;13.20;;
20022;SDS011;10172;42.054;24.546;2024-02-26T13:41:46;17.33;;;12.43;;
20022;SDS011;10172;42.054;24.546;2024-02-26T13:44:12;17.63;;;13.07;;
20022;SDS011;10172;42.054;24.546;2024-02-26T13:46:37;21.92;;;15.93;;
20022;SDS011;10172;42.054;24.546;2024-02-26T13:49:03;19.83;;;14.05;;
20022;SDS011;10172;42.054;24.546;2024-02-26T13:51:28;20.65;;;13.50;;
20022;SDS011;10172;42.054;24.546;2024-02-26T13:54:00;19.02;;;13.18;;
20022;SDS011;10172;42.054;24.546;2024-02-26T13:56:25;19.80;;;12.98;;
20022;SDS011;10172;42.054;24.546;2024-02-26T13:58:51;23.48;;;13.15;;
20022;SDS011;10172;42.054;24.546;2024-02-26T14:01:16;22.38;;;13.13;;
20022;SDS011;10172;42.054;24.546;2024-02-26T14:03:42;17.73;;;12.88;;
20022;SDS011;10172;42.054;24.546;2024-02-26T14:06:07;18.10;;;12.75;;
20022;SDS011;10172;42.054;24.546;2024-02-26T14:08:32;16.55;;;12.73;;
20022;SDS011;10172;42.054;24.546;2024-02-26T14:10:58;19.70;;;12.52;;
20022;SDS011;10172;42.054;24.546;2024-02-26T14:13:25;15.85;;;13.15;;
20022;SDS011;10172;42.054;24.546;2024-02-26T14:15:50;19.70;;;12.77;;